createdAt,value
2019-05-05T00:02:21.197Z,3.00
2019-05-05T00:04:57.814Z,2.73
2019-05-05T00:07:30.388Z,2.53
2019-05-05T00:10:00.535Z,2.50
2019-05-05T00:12:41.897Z,1.90
2019-05-05T00:15:30.243Z,2.07
2019-05-05T00:18:00.312Z,2.10
2019-05-05T00:20:30.190Z,3.47
2019-05-05T00:22:59.932Z,2.60
2019-05-05T00:25:29.746Z,2.60
2019-05-05T00:27:59.569Z,3.23
2019-05-05T00:30:29.596Z,2.40
2019-05-05T00:32:59.508Z,2.97
2019-05-05T00:35:29.324Z,2.83
2019-05-05T00:37:59.511Z,2.63
2019-05-05T00:40:29.574Z,2.40
2019-05-05T00:42:59.400Z,3.10
2019-05-05T00:45:30.463Z,2.90
2019-05-05T00:48:21.375Z,3.03
2019-05-05T00:50:51.930Z,2.90
2019-05-05T00:53:21.867Z,2.83
2019-05-05T00:55:51.961Z,2.73
2019-05-05T00:58:21.773Z,3.50
2019-05-05T01:00:57.517Z,2.77
2019-05-05T01:03:27.981Z,3.23
2019-05-05T01:06:06.070Z,3.63
2019-05-05T01:08:35.818Z,3.10
2019-05-05T01:11:06.099Z,3.10
2019-05-05T01:13:36.822Z,2.93
2019-05-05T01:16:07.678Z,2.80
2019-05-05T01:18:37.570Z,3.30
2019-05-05T01:21:07.449Z,2.90
2019-05-05T01:23:37.274Z,3.27
2019-05-05T01:26:07.530Z,3.37
2019-05-05T01:28:37.438Z,3.30
2019-05-05T01:31:11.588Z,2.50
2019-05-05T01:33:57.317Z,2.90
2019-05-05T01:36:27.198Z,3.37
2019-05-05T01:39:31.178Z,3.40
2019-05-05T01:42:04.985Z,3.20
2019-05-05T01:44:35.298Z,3.77
2019-05-05T01:47:05.441Z,3.63
2019-05-05T01:49:35.478Z,3.73
2019-05-05T01:52:05.400Z,3.00
2019-05-05T01:54:35.402Z,3.20
2019-05-05T01:57:05.675Z,3.40
2019-05-05T01:59:36.765Z,3.60
2019-05-05T02:02:06.629Z,4.00
2019-05-05T02:04:36.613Z,3.73
2019-05-05T02:07:06.661Z,2.93
2019-05-05T02:09:36.548Z,3.60
2019-05-05T02:12:06.449Z,3.23
2019-05-05T02:14:36.416Z,3.10
2019-05-05T02:17:06.301Z,3.07
2019-05-05T02:19:36.188Z,3.20
2019-05-05T02:22:06.233Z,2.93
2019-05-05T02:24:36.144Z,3.37
2019-05-05T02:27:06.026Z,2.87
2019-05-05T02:29:54.898Z,4.00
2019-05-05T02:32:45.213Z,3.67
2019-05-05T02:35:16.775Z,3.37
2019-05-05T02:37:47.558Z,4.00
2019-05-05T02:40:18.227Z,3.27
2019-05-05T02:42:48.740Z,4.13
2019-05-05T02:45:44.364Z,3.93
2019-05-05T02:48:16.164Z,3.80
2019-05-05T02:51:00.142Z,3.73
2019-05-05T02:53:33.849Z,3.77
2019-05-05T02:56:06.330Z,3.13
2019-05-05T02:58:38.577Z,4.27
2019-05-05T03:01:19.718Z,3.67
2019-05-05T03:03:50.391Z,3.87
2019-05-05T03:06:20.197Z,3.27
2019-05-05T03:08:50.817Z,4.20
2019-05-05T03:11:21.001Z,4.00
2019-05-05T03:13:53.806Z,3.97
2019-05-05T03:16:27.252Z,3.77
2019-05-05T03:18:57.972Z,4.07
2019-05-05T03:21:28.125Z,5.37
2019-05-05T03:23:58.174Z,4.07
2019-05-05T03:26:29.059Z,4.17
2019-05-05T03:29:00.177Z,4.20
2019-05-05T03:31:30.527Z,4.83
2019-05-05T03:34:00.930Z,4.23
2019-05-05T03:36:31.149Z,4.47
2019-05-05T03:39:01.408Z,3.83
2019-05-05T03:41:38.360Z,4.10
2019-05-05T03:44:29.629Z,4.40
2019-05-05T03:46:59.606Z,4.07
2019-05-05T03:49:30.794Z,4.87
2019-05-05T03:52:00.775Z,4.87
2019-05-05T03:54:31.357Z,4.10
2019-05-05T03:57:10.119Z,4.63
2019-05-05T03:59:44.059Z,4.63
2019-05-05T04:02:34.045Z,4.90
2019-05-05T04:05:24.948Z,5.03
2019-05-05T04:07:55.256Z,5.43
2019-05-05T04:10:25.065Z,4.43
2019-05-05T04:12:56.776Z,4.63
2019-05-05T04:15:26.876Z,5.30
2019-05-05T04:18:11.105Z,5.13
2019-05-05T04:20:44.208Z,4.23
2019-05-05T04:23:14.302Z,4.93
2019-05-05T04:25:44.390Z,4.87
2019-05-05T04:28:14.557Z,5.10
2019-05-05T04:30:47.357Z,4.67
2019-05-05T04:33:17.093Z,4.93
2019-05-05T04:35:47.547Z,4.27
2019-05-05T04:38:17.735Z,5.17
2019-05-05T04:40:47.714Z,5.07
2019-05-05T04:43:17.967Z,5.47
2019-05-05T04:45:48.125Z,5.23
2019-05-05T04:48:24.384Z,5.83
2019-05-05T04:51:04.667Z,5.17
2019-05-05T04:53:51.597Z,5.33
2019-05-05T04:56:23.480Z,4.73
2019-05-05T04:58:54.416Z,4.67
2019-05-05T05:01:24.386Z,4.77
2019-05-05T05:04:06.828Z,4.37
2019-05-05T05:06:40.665Z,3.97
2019-05-05T05:09:10.560Z,4.87
2019-05-05T05:11:40.284Z,4.77
2019-05-05T05:14:10.353Z,4.37
2019-05-05T05:16:40.082Z,4.30
2019-05-05T05:19:09.817Z,4.37
2019-05-05T05:21:39.728Z,4.00
2019-05-05T05:24:09.806Z,3.57
2019-05-05T05:26:39.792Z,4.00
2019-05-05T05:29:09.601Z,3.53
2019-05-05T05:31:39.448Z,3.70
2019-05-05T05:34:09.178Z,4.13
2019-05-05T05:36:39.161Z,4.20
2019-05-05T05:39:15.224Z,4.27
2019-05-05T05:41:46.154Z,4.37
2019-05-05T05:44:35.214Z,4.07
2019-05-05T05:47:18.847Z,3.57
2019-05-05T05:50:03.970Z,4.50
2019-05-05T05:52:34.458Z,3.83
2019-05-05T05:55:04.922Z,3.83
2019-05-05T05:57:34.785Z,4.20
2019-05-05T06:00:06.238Z,4.73
2019-05-05T06:02:36.430Z,6.03
2019-05-05T06:05:06.436Z,5.60
2019-05-05T06:07:36.285Z,4.90
2019-05-05T06:10:06.589Z,4.60
2019-05-05T06:12:36.508Z,4.73
2019-05-05T06:15:06.705Z,4.20
2019-05-05T06:17:36.444Z,4.63
2019-05-05T06:20:06.634Z,4.50
2019-05-05T06:22:36.430Z,3.67
2019-05-05T06:25:06.977Z,4.07
2019-05-05T06:27:36.816Z,3.43
2019-05-05T06:30:06.840Z,3.97
2019-05-05T06:32:36.574Z,3.80
2019-05-05T06:35:07.960Z,3.77
2019-05-05T06:37:39.329Z,4.27
2019-05-05T06:40:11.068Z,3.93
2019-05-05T06:42:53.907Z,3.53
2019-05-05T06:45:37.712Z,3.70
2019-05-05T06:48:07.505Z,3.83
2019-05-05T06:50:37.567Z,4.13
2019-05-05T06:53:07.701Z,3.67
2019-05-05T06:55:37.808Z,4.63
2019-05-05T06:58:07.777Z,6.53
2019-05-05T07:00:38.552Z,4.10
2019-05-05T07:03:08.279Z,3.90
2019-05-05T07:05:38.585Z,3.67
2019-05-05T07:08:08.656Z,3.90
2019-05-05T07:10:38.505Z,4.40
2019-05-05T07:13:08.378Z,3.70
2019-05-05T07:15:38.366Z,3.67
2019-05-05T07:18:08.081Z,4.33
2019-05-05T07:20:37.992Z,4.00
2019-05-05T07:23:08.210Z,4.27
2019-05-05T07:25:42.901Z,4.23
2019-05-05T07:28:09.439Z,3.37
2019-05-05T07:30:39.233Z,4.30
2019-05-05T07:33:14.893Z,4.23
2019-05-05T07:35:56.798Z,3.30
2019-05-05T07:38:21.464Z,3.57
2019-05-05T07:40:51.213Z,3.70
2019-05-05T07:43:21.019Z,3.40
2019-05-05T07:45:50.918Z,3.63
2019-05-05T07:48:20.677Z,3.30
2019-05-05T07:51:01.268Z,3.20
2019-05-05T07:53:24.343Z,3.60
2019-05-05T07:55:54.257Z,3.83
2019-05-05T07:58:24.330Z,4.07
2019-05-05T08:00:54.220Z,4.30
2019-05-05T08:03:23.957Z,4.10
2019-05-05T08:05:54.554Z,3.50
2019-05-05T08:08:24.741Z,4.00
2019-05-05T08:10:54.473Z,3.60
2019-05-05T08:13:24.422Z,3.63
2019-05-05T08:15:59.973Z,3.77
2019-05-05T08:18:44.008Z,3.83
2019-05-05T08:21:13.933Z,3.90
2019-05-05T08:24:04.699Z,3.70
2019-05-05T08:26:49.737Z,3.60
2019-05-05T08:29:35.030Z,3.90
2019-05-05T08:32:32.773Z,4.30
2019-05-05T08:35:04.228Z,4.27
2019-05-05T08:37:34.312Z,3.70
2019-05-05T08:40:04.542Z,3.87
2019-05-05T08:42:36.169Z,4.10
2019-05-05T08:45:07.617Z,3.67
2019-05-05T08:47:37.883Z,3.97
2019-05-05T08:50:07.982Z,5.00
2019-05-05T08:52:38.031Z,3.73
2019-05-05T08:55:07.998Z,4.20
2019-05-05T08:57:38.007Z,4.57
2019-05-05T09:00:07.975Z,4.40
2019-05-05T09:02:38.002Z,3.83
2019-05-05T09:05:08.238Z,3.60
2019-05-05T09:07:38.367Z,3.90
2019-05-05T09:10:08.772Z,4.10
2019-05-05T09:12:38.678Z,3.90
2019-05-05T09:15:08.789Z,3.47
2019-05-05T09:17:38.618Z,3.47
2019-05-05T09:20:08.656Z,3.73
2019-05-05T09:22:38.501Z,4.00
2019-05-05T09:25:15.923Z,3.70
2019-05-05T09:27:58.345Z,3.83
2019-05-05T09:30:36.789Z,4.43
2019-05-05T09:33:06.699Z,4.03
2019-05-05T09:35:36.509Z,3.60
2019-05-05T09:38:06.609Z,3.30
2019-05-05T09:40:39.381Z,2.63
2019-05-05T09:43:09.837Z,3.00
2019-05-05T09:45:40.206Z,2.80
2019-05-05T09:48:10.180Z,3.10
2019-05-05T09:50:40.106Z,3.10
2019-05-05T09:53:11.189Z,3.23
2019-05-05T09:55:41.221Z,3.50
2019-05-05T09:58:13.530Z,3.27
2019-05-05T10:00:44.434Z,4.13
2019-05-05T10:03:14.720Z,3.03
2019-05-05T10:05:45.123Z,2.93
2019-05-05T10:08:15.016Z,3.20
2019-05-05T10:10:44.850Z,3.60
2019-05-05T10:13:15.110Z,3.00
2019-05-05T10:15:44.956Z,3.30
2019-05-05T10:18:15.001Z,2.93
2019-05-05T10:20:44.978Z,3.10
2019-05-05T10:23:15.252Z,2.87
2019-05-05T10:25:50.034Z,2.80
2019-05-05T10:28:23.880Z,3.00
2019-05-05T10:30:54.036Z,2.87
2019-05-05T10:33:24.718Z,3.03
2019-05-05T10:35:55.029Z,2.60
2019-05-05T10:38:25.228Z,3.10
2019-05-05T10:40:56.260Z,3.10
2019-05-05T10:43:26.477Z,3.03
2019-05-05T10:45:56.640Z,2.60
2019-05-05T10:48:27.241Z,2.30
2019-05-05T10:50:57.420Z,2.27
2019-05-05T10:53:27.369Z,2.23
2019-05-05T10:55:57.242Z,2.13
2019-05-05T10:58:27.126Z,2.13
2019-05-05T11:01:03.976Z,2.00
2019-05-05T11:03:34.318Z,1.77
2019-05-05T11:06:04.741Z,1.90
2019-05-05T11:08:38.613Z,2.13
2019-05-05T11:11:08.662Z,2.63
2019-05-05T11:13:38.784Z,2.50
2019-05-05T11:16:08.861Z,2.10
2019-05-05T11:18:38.801Z,2.40
2019-05-05T11:21:08.629Z,2.70
2019-05-05T11:23:38.489Z,2.60
2019-05-05T11:26:08.607Z,2.87
2019-05-05T11:28:38.660Z,2.40
2019-05-05T11:31:08.620Z,2.37
2019-05-05T11:33:59.717Z,2.40
2019-05-05T11:36:55.884Z,2.47
2019-05-05T11:39:26.160Z,2.30
2019-05-05T11:41:58.317Z,2.77
2019-05-05T11:44:28.351Z,2.30
2019-05-05T11:46:58.481Z,3.37
2019-05-05T11:49:28.484Z,2.83
2019-05-05T11:51:58.365Z,2.80
2019-05-05T11:54:28.797Z,2.43
2019-05-05T11:56:58.542Z,2.70
2019-05-05T11:59:28.677Z,2.50
2019-05-05T12:01:58.759Z,2.33
2019-05-05T12:04:28.718Z,2.60
2019-05-05T12:06:58.536Z,3.07
2019-05-05T12:09:38.356Z,2.80
2019-05-05T12:12:08.264Z,2.93
2019-05-05T12:14:38.542Z,2.90
2019-05-05T12:17:08.519Z,2.73
2019-05-05T12:19:38.716Z,2.93
2019-05-05T12:22:10.460Z,2.60
2019-05-05T12:24:46.659Z,2.87
2019-05-05T12:27:30.435Z,5.80
2019-05-05T12:30:14.024Z,4.30
2019-05-05T12:32:43.880Z,10.93
2019-05-05T12:35:14.849Z,3.90
2019-05-05T12:37:45.053Z,4.10
2019-05-05T12:40:14.983Z,9.23
2019-05-05T12:42:44.731Z,4.07
2019-05-05T12:45:18.866Z,3.77
2019-05-05T12:48:08.825Z,4.77
2019-05-05T12:50:38.829Z,4.60
2019-05-05T12:53:11.060Z,3.73
2019-05-05T12:55:42.507Z,5.00
2019-05-05T12:58:13.976Z,3.20
2019-05-05T13:00:48.339Z,3.60
2019-05-05T13:03:19.216Z,2.87
2019-05-05T13:05:50.521Z,3.50
2019-05-05T13:08:20.329Z,2.90
2019-05-05T13:10:50.503Z,2.73
2019-05-05T13:13:20.759Z,2.87
2019-05-05T13:15:50.710Z,2.77
2019-05-05T13:18:20.712Z,3.20
2019-05-05T13:21:11.004Z,2.70
2019-05-05T13:23:58.862Z,3.03
2019-05-05T13:26:48.633Z,3.07
2019-05-05T13:29:18.707Z,2.97
2019-05-05T13:31:48.574Z,3.00
2019-05-05T13:34:19.109Z,2.03
2019-05-05T13:36:51.073Z,2.50
2019-05-05T13:39:21.265Z,3.03
2019-05-05T13:41:51.282Z,2.67
2019-05-05T13:44:46.989Z,2.90
2019-05-05T13:47:17.315Z,3.70
2019-05-05T13:49:47.121Z,2.90
2019-05-05T13:52:17.161Z,4.13
2019-05-05T13:54:47.146Z,3.13
2019-05-05T13:57:17.335Z,3.00
2019-05-05T13:59:47.154Z,3.30
2019-05-05T14:02:17.225Z,3.17
2019-05-05T14:04:47.410Z,3.80
2019-05-05T14:07:17.813Z,4.20
2019-05-05T14:09:48.905Z,3.63
2019-05-05T14:12:18.865Z,2.80
2019-05-05T14:14:49.757Z,2.70
2019-05-05T14:17:20.843Z,3.40
2019-05-05T14:20:04.115Z,3.10
2019-05-05T14:22:24.876Z,3.10
2019-05-05T14:25:05.620Z,3.40
2019-05-05T14:27:36.389Z,3.07
2019-05-05T14:30:19.734Z,2.90
2019-05-05T14:32:49.721Z,3.20
2019-05-05T14:35:43.398Z,2.90
2019-05-05T14:38:19.642Z,2.90
2019-05-05T14:40:49.516Z,2.97
2019-05-05T14:43:19.540Z,2.93
2019-05-05T14:45:49.501Z,2.57
2019-05-05T14:48:19.436Z,2.87
2019-05-05T14:50:51.714Z,4.47
2019-05-05T14:53:23.621Z,4.37
2019-05-05T14:55:55.511Z,3.73
2019-05-05T14:58:25.674Z,7.60
2019-05-05T15:00:56.033Z,3.70
2019-05-05T15:03:25.870Z,3.10
2019-05-05T15:06:08.405Z,2.67
2019-05-05T15:08:48.443Z,2.10
2019-05-05T15:11:49.472Z,2.90
2019-05-05T15:14:20.559Z,2.70
2019-05-05T15:16:50.356Z,2.40
2019-05-05T15:19:23.598Z,2.27
2019-05-05T15:21:53.642Z,2.83
2019-05-05T15:24:24.400Z,2.53
2019-05-05T15:26:55.122Z,2.47
2019-05-05T15:29:25.390Z,2.13
2019-05-05T15:31:56.355Z,2.17
2019-05-05T15:34:26.197Z,2.20
2019-05-05T15:36:57.321Z,3.03
2019-05-05T15:39:27.305Z,3.10
2019-05-05T15:41:57.056Z,2.80
2019-05-05T15:44:27.862Z,2.57
2019-05-05T15:46:58.193Z,3.00
2019-05-05T15:49:28.131Z,3.20
2019-05-05T15:51:58.477Z,2.37
2019-05-05T15:54:28.577Z,3.10
2019-05-05T15:57:05.660Z,3.10
2019-05-05T15:59:30.262Z,2.87
2019-05-05T16:02:00.396Z,3.00
2019-05-05T16:04:30.606Z,2.87
2019-05-05T16:07:00.716Z,3.07
2019-05-05T16:09:31.776Z,2.93
2019-05-05T16:12:03.795Z,3.07
2019-05-05T16:14:38.260Z,2.57
2019-05-05T16:17:35.914Z,2.90
2019-05-05T16:20:25.464Z,2.90
2019-05-05T16:23:15.562Z,2.73
2019-05-05T16:25:46.699Z,2.00
2019-05-05T16:28:21.573Z,2.00
2019-05-05T16:30:53.355Z,2.47
2019-05-05T16:33:24.176Z,2.23
2019-05-05T16:35:54.326Z,2.13
2019-05-05T16:38:24.477Z,2.60
2019-05-05T16:40:54.562Z,2.70
2019-05-05T16:43:24.814Z,1.93
2019-05-05T16:45:56.848Z,2.03
2019-05-05T16:48:27.026Z,2.60
2019-05-05T16:50:57.082Z,2.67
2019-05-05T16:53:37.797Z,1.93
2019-05-05T16:56:11.387Z,1.87
2019-05-05T16:58:41.390Z,2.17
2019-05-05T17:01:14.551Z,2.10
2019-05-05T17:03:45.835Z,2.70
2019-05-05T17:06:17.082Z,3.00
2019-05-05T17:08:49.380Z,2.23
2019-05-05T17:11:18.777Z,2.90
2019-05-05T17:14:03.896Z,2.70
2019-05-05T17:16:47.512Z,2.40
2019-05-05T17:19:24.639Z,2.90
2019-05-05T17:22:29.795Z,2.83
2019-05-05T17:25:02.924Z,2.70
2019-05-05T17:27:47.030Z,2.23
2019-05-05T17:30:05.128Z,3.33
2019-05-05T17:32:37.596Z,3.90
2019-05-05T17:35:07.880Z,2.57
2019-05-05T17:37:38.537Z,2.73
2019-05-05T17:40:16.020Z,3.27
2019-05-05T17:42:57.950Z,3.03
2019-05-05T17:45:55.104Z,2.57
2019-05-05T17:48:41.122Z,2.53
2019-05-05T17:51:31.224Z,2.60
2019-05-05T17:54:05.314Z,2.70
2019-05-05T17:56:35.732Z,3.10
2019-05-05T17:59:07.585Z,2.60
2019-05-05T18:01:37.474Z,2.87
2019-05-05T18:04:07.453Z,2.80
2019-05-05T18:06:45.186Z,2.13
2019-05-05T18:09:36.903Z,2.77
2019-05-05T18:12:35.044Z,2.50
2019-05-05T18:15:06.599Z,2.67
2019-05-05T18:17:36.368Z,2.77
2019-05-05T18:20:07.180Z,3.00
2019-05-05T18:22:36.981Z,2.37
2019-05-05T18:25:08.920Z,2.67
2019-05-05T18:27:38.660Z,2.90
2019-05-05T18:30:10.642Z,2.77
2019-05-05T18:32:43.466Z,3.03
2019-05-05T18:35:13.657Z,2.60
2019-05-05T18:37:46.744Z,2.90
2019-05-05T18:40:17.907Z,2.60
2019-05-05T18:42:49.945Z,2.73
2019-05-05T18:45:20.029Z,2.93
2019-05-05T18:47:50.243Z,3.13
2019-05-05T18:50:20.146Z,2.70
2019-05-05T18:52:51.250Z,3.37
2019-05-05T18:55:21.040Z,3.20
2019-05-05T18:57:51.225Z,3.70
2019-05-05T19:00:44.089Z,3.07
2019-05-05T19:03:20.869Z,3.00
2019-05-05T19:06:10.108Z,3.40
2019-05-05T19:08:53.678Z,4.27
2019-05-05T19:11:17.617Z,4.00
2019-05-05T19:13:50.044Z,3.73
2019-05-05T19:16:20.388Z,3.83
2019-05-05T19:18:51.346Z,3.87
2019-05-05T19:21:28.846Z,3.80
2019-05-05T19:23:58.858Z,3.73
2019-05-05T19:26:28.817Z,4.20
2019-05-05T19:29:02.154Z,3.80
2019-05-05T19:31:32.098Z,4.10
2019-05-05T19:34:04.057Z,3.67
2019-05-05T19:36:34.437Z,3.33
2019-05-05T19:39:06.664Z,3.87
2019-05-05T19:41:38.211Z,3.73
2019-05-05T19:44:11.444Z,3.13
2019-05-05T19:46:54.821Z,3.43
2019-05-05T19:49:25.604Z,3.40
2019-05-05T19:51:55.577Z,3.93
2019-05-05T19:54:25.557Z,4.27
2019-05-05T19:56:56.689Z,3.57
2019-05-05T19:59:27.008Z,3.57
2019-05-05T20:01:57.106Z,3.77
2019-05-05T20:04:26.953Z,3.77
2019-05-05T20:06:56.801Z,3.53
2019-05-05T20:09:26.565Z,4.27
2019-05-05T20:11:56.520Z,3.13
2019-05-05T20:14:26.701Z,4.17
2019-05-05T20:17:04.604Z,4.33
2019-05-05T20:19:44.112Z,3.83
2019-05-05T20:22:15.680Z,4.73
2019-05-05T20:24:45.466Z,6.03
2019-05-05T20:27:15.602Z,6.00
2019-05-05T20:29:45.444Z,4.93
2019-05-05T20:32:17.165Z,5.17
2019-05-05T20:35:05.210Z,5.87
2019-05-05T20:37:41.100Z,4.60
2019-05-05T20:40:14.560Z,3.63
2019-05-05T20:42:44.979Z,4.20
2019-05-05T20:45:17.744Z,3.63
2019-05-05T20:47:47.504Z,3.67
2019-05-05T20:50:17.335Z,2.97
2019-05-05T20:52:47.149Z,3.40
2019-05-05T20:55:17.270Z,3.30
2019-05-05T20:57:47.012Z,3.60
2019-05-05T21:00:17.894Z,3.60
2019-05-05T21:02:47.842Z,4.43
2019-05-05T21:05:18.078Z,3.73
2019-05-05T21:07:47.952Z,4.33
2019-05-05T21:10:17.925Z,3.90
2019-05-05T21:12:47.657Z,3.40
2019-05-05T21:15:17.584Z,3.87
2019-05-05T21:17:47.396Z,3.83
2019-05-05T21:20:17.272Z,4.13
2019-05-05T21:23:18.119Z,3.60
2019-05-05T21:25:53.921Z,4.13
2019-05-05T21:28:24.188Z,4.30
2019-05-05T21:30:54.202Z,3.83
2019-05-05T21:33:24.531Z,3.53
2019-05-05T21:35:55.038Z,3.77
2019-05-05T21:38:24.957Z,4.00
2019-05-05T21:40:54.945Z,4.30
2019-05-05T21:43:24.677Z,3.47
2019-05-05T21:45:54.432Z,4.07
2019-05-05T21:48:24.357Z,4.23
2019-05-05T21:51:01.136Z,3.77
2019-05-05T21:53:43.054Z,3.60
2019-05-05T21:56:30.686Z,3.43
2019-05-05T21:59:00.418Z,3.47
2019-05-05T22:01:38.688Z,3.47
2019-05-05T22:04:04.212Z,3.17
2019-05-05T22:06:33.965Z,3.27
2019-05-05T22:09:04.855Z,3.53
2019-05-05T22:11:36.249Z,3.60
2019-05-05T22:14:05.984Z,2.77
2019-05-05T22:16:35.780Z,2.83
2019-05-05T22:19:06.741Z,3.30
2019-05-05T22:21:43.874Z,3.60
2019-05-05T22:24:16.037Z,2.60
2019-05-05T22:26:46.580Z,3.23
2019-05-05T22:29:17.062Z,3.70
2019-05-05T22:31:47.231Z,2.97
2019-05-05T22:34:17.164Z,3.13
2019-05-05T22:36:46.978Z,3.00
2019-05-05T22:39:17.227Z,3.03
2019-05-05T22:41:47.253Z,2.47
2019-05-05T22:44:18.118Z,2.83
2019-05-05T22:46:47.992Z,2.03
2019-05-05T22:49:18.137Z,2.47
2019-05-05T22:51:47.856Z,2.47
2019-05-05T22:54:17.581Z,2.30
2019-05-05T22:56:47.461Z,2.53
2019-05-05T22:59:17.201Z,2.90
2019-05-05T23:01:46.923Z,3.17
2019-05-05T23:04:43.840Z,2.53
2019-05-05T23:07:24.066Z,2.07
2019-05-05T23:09:54.018Z,3.17
2019-05-05T23:12:24.361Z,2.90
2019-05-05T23:14:54.654Z,2.43
2019-05-05T23:17:37.117Z,2.60
2019-05-05T23:20:38.608Z,2.73
2019-05-05T23:23:19.252Z,2.80
2019-05-05T23:25:50.869Z,2.87
2019-05-05T23:28:20.610Z,2.73
2019-05-05T23:30:50.337Z,2.50
2019-05-05T23:33:20.082Z,2.60
2019-05-05T23:35:50.774Z,2.63
2019-05-05T23:38:20.670Z,1.80
2019-05-05T23:40:50.738Z,2.67
2019-05-05T23:43:20.660Z,2.57
2019-05-05T23:45:50.498Z,2.93
2019-05-05T23:48:20.452Z,2.73
2019-05-05T23:50:50.362Z,2.37
2019-05-05T23:53:20.111Z,2.67
2019-05-05T23:55:49.895Z,2.37
2019-05-05T23:58:20.601Z,2.33
